Browns Hollow, New York
Current Conditions -  °F | °C
As of 5:35 AM on Saturday 25 Oct 2014 (Local Time) from KNY0 Reporting Station
Overcast Overcast  
Wind Chill:   Ceiling: 1400
Heat Index:   Visibility: 10mi
Dew Point:   Wind: 8mph
Humidity: 88%   Direction: 270°W
Pressure: 29.82"   Gusts: NA
Location:  42.8548°N, 74.5942°W
Report Text: KNY0 250935Z AUTO 27007KT 10SM OVC014 06/04 A2982 RMK AO2 T00610043
Loading
Personal Weather Stations






























Interactive Weather Map
Tropical Storm Tracking
New forecast layout! Learn more

10-Day Weather Forecast

Advertisements
Track Severe Weather on mobile